MSC Brianna — 3FVZ7 — position and weather

sailwx.info

Track history (hours):
 
Tides and Currents Weather Stations Pressure Air Temp Water Temp Dewpoint Dewpoint Depression Visibility Wind Speed Wind Dir Waves Ship Positions

MSC Brianna

Last reported at 2018-Jun-18 19:30 UTC. Time now 2018-Jun-18 19:34 UTC.
Position N 38°03' W 009°23'.

Length 294 m; draft 11.9 m.

Type: Ship (hazmat cat A). MMSI: 353612000.

Date/timePositionNaut miles runAvg speedWind from/ knotsBaromVisibWave heightAir tempDewpointWater temp
2018-Jun-18 19:30N 38°03' W 009°23'815.1
2018-Jun-18 19:00N 37°59' W 009°14'815.2
2018-Jun-18 18:30N 37°56' W 009°06'714.8
2018-Jun-18 18:00N 37°55' W 008°56'5 9.4
2018-Jun-18 17:30N 37°55' W 008°50'1 1.5
2018-Jun-18 16:59N 37°56' W 008°51'0 0.0
2018-Jun-18 16:29N 37°56' W 008°51'0 0.0
2018-Jun-18 15:59N 37°56' W 008°51'0 0.0
2018-Jun-18 15:29N 37°56' W 008°51'0 0.0
2018-Jun-18 14:59N 37°56' W 008°51'0 0.0
2018-Jun-18 14:29N 37°56' W 008°51'0 0.0
2018-Jun-18 13:59N 37°56' W 008°51'0 0.0
2018-Jun-18 13:29N 37°56' W 008°51'0 0.0
2018-Jun-18 12:59N 37°56' W 008°51'0 0.0
2018-Jun-18 12:29N 37°56' W 008°51'0 0.0
2018-Jun-18 11:59N 37°56' W 008°51'0 0.0
2018-Jun-18 11:23N 37°56' W 008°51'0 0.0
2018-Jun-18 10:59N 37°56' W 008°51'0 0.0
2018-Jun-18 10:29N 37°56' W 008°51'0 0.0
2018-Jun-18 09:56N 37°56' W 008°51'0 0.0
2018-Jun-18 09:29N 37°56' W 008°51'0 0.0
2018-Jun-18 08:59N 37°56' W 008°51'0 0.0
2018-Jun-18 08:28N 37°56' W 008°51'0 0.0
2018-Jun-18 07:58N 37°56' W 008°51'0 0.1
2018-Jun-18 07:28N 37°56' W 008°51'0 0.0
2018-Jun-18 06:55N 37°56' W 008°51'0 0.0
2018-Jun-18 06:19N 37°56' W 008°51'0 0.0
2018-Jun-18 05:55N 37°56' W 008°51'0 0.0
2018-Jun-18 05:28N 37°56' W 008°51'0 0.1
2018-Jun-18 04:58N 37°56' W 008°51'0 0.0
2018-Jun-18 04:28N 37°56' W 008°51'0 0.0
2018-Jun-18 03:58N 37°56' W 008°51'0 0.0
2018-Jun-18 03:28N 37°56' W 008°51'0 0.0
2018-Jun-18 02:58N 37°56' W 008°51'0 0.0
2018-Jun-18 02:28N 37°56' W 008°51'0 0.0
2018-Jun-18 01:58N 37°56' W 008°51'0 0.0
2018-Jun-18 01:28N 37°56' W 008°51'0 0.0
2018-Jun-18 00:58N 37°56' W 008°51'0 0.0
2018-Jun-18 00:28N 37°56' W 008°51'0 0.0
2018-Jun-17 23:58N 37°56' W 008°51'0 0.0
2018-Jun-17 23:28N 37°56' W 008°51'0 0.0
2018-Jun-17 22:58N 37°56' W 008°51'0 0.0
2018-Jun-17 22:28N 37°56' W 008°51'0 0.0
2018-Jun-17 21:55N 37°56' W 008°51'0 0.0
2018-Jun-17 21:28N 37°56' W 008°51'0 0.0
2018-Jun-17 20:58N 37°56' W 008°51'0 0.0
2018-Jun-17 20:28N 37°56' W 008°51'0 0.0
2018-Jun-17 19:58N 37°56' W 008°51'0 0.0
2018-Jun-17 19:25N 37°56' W 008°51'0 0.0
2018-Jun-17 18:58N 37°56' W 008°51'0 0.0
2018-Jun-17 18:31N 37°56' W 008°51'2 3.0
2018-Jun-17 18:00N 37°54' W 008°50'3 5.8
2018-Jun-17 17:31N 37°52' W 008°51'4 8.3
2018-Jun-17 17:00N 37°48' W 008°55'2 3.5
2018-Jun-17 16:30N 37°47' W 008°56'1 1.0
2018-Jun-17 15:59N 37°48' W 008°56'1 1.5
2018-Jun-17 15:30N 37°47' W 008°56'1 1.3
2018-Jun-17 15:00N 37°47' W 008°57'1 2.3
2018-Jun-17 14:31N 37°46' W 008°57'1 3.0
2018-Jun-17 14:01N 37°45' W 008°56'1 1.4
2018-Jun-17 13:30N 37°46' W 008°56'1 1.1
2018-Jun-17 13:01N 37°46' W 008°56'0 0.7
2018-Jun-17 12:30N 37°46' W 008°56'1 1.1
2018-Jun-17 12:01N 37°46' W 008°57'0 0.9
2018-Jun-17 11:31N 37°46' W 008°56'1 1.0
2018-Jun-17 11:01N 37°47' W 008°56'0 0.8
2018-Jun-17 10:30N 37°46' W 008°57'1 1.2
2018-Jun-17 10:01N 37°47' W 008°57'0 0.4
2018-Jun-17 09:29N 37°47' W 008°57'2 4.4
2018-Jun-17 09:00N 37°45' W 008°57'2 4.4
2018-Jun-17 08:31N 37°43' W 008°57'2 4.6
2018-Jun-17 08:01N 37°41' W 008°58'2 4.7
2018-Jun-17 07:30N 37°38' W 008°59'2 4.8
2018-Jun-17 07:01N 37°36' W 008°60'3 5.0
2018-Jun-17 06:30N 37°34' W 009°01'3 5.2
2018-Jun-17 06:01N 37°32' W 009°03'3 5.2
2018-Jun-17 05:29N 37°29' W 009°04'3 5.1
2018-Jun-17 04:57N 37°27' W 009°06'2 4.9
2018-Jun-17 04:31N 37°25' W 009°07'2 4.9
2018-Jun-17 04:00N 37°23' W 009°08'2 4.9
2018-Jun-17 03:31N 37°20' W 009°10'2 4.6
2018-Jun-17 03:01N 37°18' W 009°11'2 4.7
2018-Jun-17 02:30N 37°16' W 009°12'2 4.7
2018-Jun-17 02:01N 37°14' W 009°13'3 4.7
2018-Jun-17 01:27N 37°12' W 009°15'2 4.4
2018-Jun-17 01:01N 37°10' W 009°16'2 4.6
2018-Jun-17 00:31N 37°08' W 009°17'2 4.4
2018-Jun-17 00:00N 37°06' W 009°18'2 4.2
2018-Jun-16 23:30N 37°04' W 009°19'2 4.0
2018-Jun-16 23:01N 37°02' W 009°20'2 3.2
2018-Jun-16 22:31N 37°01' W 009°21'1 2.4
2018-Jun-16 22:01N 36°59' W 009°21'1 2.4
2018-Jun-16 21:31N 36°58' W 009°20'1 2.5
2018-Jun-16 21:00N 36°57' W 009°20'1 2.5
2018-Jun-16 20:30N 36°56' W 009°20'1 2.6
2018-Jun-16 20:00N 36°54' W 009°20'2 3.4
2018-Jun-16 19:30N 36°53' W 009°19'2 4.0
2018-Jun-16 19:01N 36°51' W 009°17'2 4.5
2018-Jun-16 18:31N 36°50' W 009°15'2 4.6
2018-Jun-16 18:00N 36°48' W 009°13'3 5.7
2018-Jun-16 17:31N 36°46' W 009°11'3 6.2
2018-Jun-16 17:01N 36°44' W 009°08'3 6.9
2018-Jun-16 16:31N 36°43' W 009°04'4 7.0
2018-Jun-16 16:01N 36°42' W 008°60'4 6.8
2018-Jun-16 15:29N 36°40' W 008°55'3 6.4
2018-Jun-16 15:01N 36°39' W 008°52'3 6.3
2018-Jun-16 14:31N 36°38' W 008°48'4 6.3
2018-Jun-16 13:49N 36°37' W 008°43'2 6.0
2018-Jun-16 13:30N 36°37' W 008°41'13 6.1
2018-Jun-16 11:26N 36°32' W 008°26'3 6.5
2018-Jun-16 10:59N 36°32' W 008°23'3 6.7
2018-Jun-16 10:31N 36°31' W 008°19'3 6.5
2018-Jun-16 10:00N 36°30' W 008°15'3 6.8
2018-Jun-16 09:31N 36°28' W 008°11'5 9.8
2018-Jun-16 09:00N 36°27' W 008°05'1819.3
2018-Jun-16 08:03N 36°21' W 007°43'117.8
2018-Jun-16 08:00N 36°21' W 007°43'610.6
2018-Jun-16 07:29N 36°19' W 007°36'4 7.4
2018-Jun-16 06:59N 36°18' W 007°32'4 7.5
2018-Jun-16 06:24N 36°16' W 007°27'9 8.5
2018-Jun-16 05:24N 36°13' W 007°17'3 8.7
2018-Jun-16 05:00N 36°12' W 007°13'4 8.1
2018-Jun-16 04:30N 36°11' W 007°08'3 6.6
2018-Jun-16 04:00N 36°10' W 007°04'4 6.8
2018-Jun-16 03:29N 36°09' W 006°60'3 6.9
2018-Jun-16 03:00N 36°08' W 006°56'8 6.9
2018-Jun-16 01:53N 36°05' W 006°47'4 6.9
2018-Jun-16 01:21N 36°04' W 006°43'2 6.8
2018-Jun-16 01:00N 36°03' W 006°40'4 6.8
2018-Jun-16 00:25N 36°02' W 006°35'48 7.3
2018-Jun-15 17:49N 35°58' W 005°36'2 6.1
2018-Jun-15 17:30N 35°58' W 005°34'4 7.0
2018-Jun-15 17:00N 35°59' W 005°29'4 7.3
2018-Jun-15 16:30N 36°00' W 005°25'4 7.1
2018-Jun-15 16:00N 36°01' W 005°21'3 6.8
2018-Jun-15 15:30N 36°01' W 005°17'4 7.3
2018-Jun-15 15:00N 36°02' W 005°12'202 7.4
2018-Jun-14 11:45N 37°06' W 001°14'3 6.7
2018-Jun-14 11:19N 37°08' W 001°11'3 7.0
2018-Jun-14 10:57N 37°10' W 001°09'3 6.8
2018-Jun-14 10:30N 37°12' W 001°06'3 6.8
2018-Jun-14 10:00N 37°14' W 001°03'4 6.9
2018-Jun-14 09:27N 37°16' W 000°59'4 7.1
2018-Jun-14 08:56N 37°19' W 000°56'3 7.2
2018-Jun-14 08:30N 37°21' W 000°53'4 8.7
2018-Jun-14 08:01N 37°24' W 000°49'917.8
2018-Jun-14 07:30N 37°30' W 000°40'713.9
2018-Jun-14 07:00N 37°34' W 000°34'4 7.2
2018-Jun-14 06:30N 37°37' W 000°31'4 7.3
2018-Jun-14 06:00N 37°40' W 000°28'4 7.2
2018-Jun-14 05:30N 37°43' W 000°26'4 7.3
2018-Jun-14 05:00N 37°46' W 000°23'4 7.3
2018-Jun-14 04:30N 37°49' W 000°21'4 7.1
2018-Jun-14 04:00N 37°52' W 000°18'3 6.9
2018-Jun-14 03:30N 37°55' W 000°16'3 6.8
2018-Jun-14 03:00N 37°58' W 000°14'4 7.1
2018-Jun-14 02:30N 38°01' W 000°11'4 7.3
2018-Jun-14 02:00N 38°04' W 000°09'4 7.2
2018-Jun-14 01:28N 38°07' W 000°06'3 7.1
2018-Jun-14 01:00N 38°10' W 000°04'5 7.3
2018-Jun-14 00:22N 38°14' W 000°01'6 7.4
2018-Jun-13 23:32N 38°19' E 000°03'1 7.5
2018-Jun-13 23:21N 38°21' E 000°04'3 7.6
2018-Jun-13 23:00N 38°23' E 000°06'4 7.4
2018-Jun-13 22:29N 38°26' E 000°09'25 7.6
2018-Jun-13 19:12N 38°47' E 000°26'135 7.2
2018-Jun-13 00:30N 40°46' E 001°49'6 7.2
2018-Jun-12 23:35N 40°52' E 001°53'2 7.0
2018-Jun-12 23:16N 40°54' E 001°54'2 7.0
2018-Jun-12 22:56N 40°56' E 001°56'3 6.3
2018-Jun-12 22:30N 40°58' E 001°58'3 6.6
2018-Jun-12 22:00N 41°01' E 001°60'3 7.0
2018-Jun-12 21:30N 41°04' E 002°02'3 6.9
2018-Jun-12 21:00N 41°07' E 002°04'3 6.7
2018-Jun-12 20:30N 41°10' E 002°06'3 6.4
2018-Jun-12 20:00N 41°12' E 002°08'3 6.7
2018-Jun-12 19:30N 41°15' E 002°11'3 6.1
2018-Jun-12 19:00N 41°18' E 002°10'1 1.9
2018-Jun-12 18:30N 41°19' E 002°09'0 0.0
2018-Jun-12 17:59N 41°19' E 002°09'0 0.0
2018-Jun-12 17:29N 41°19' E 002°09'0 0.0
2018-Jun-12 16:59N 41°19' E 002°09'0 0.0
2018-Jun-12 16:29N 41°19' E 002°09'0 0.0
2018-Jun-12 15:59N 41°19' E 002°09'0 0.0
2018-Jun-12 15:29N 41°19' E 002°09'0 0.0
2018-Jun-12 14:59N 41°19' E 002°09'0 0.0
2018-Jun-12 14:29N 41°19' E 002°09'0 0.0
2018-Jun-12 13:59N 41°19' E 002°09'0 0.1
2018-Jun-12 13:29N 41°19' E 002°09'0 0.0
2018-Jun-12 12:59N 41°19' E 002°09'0 0.0
2018-Jun-12 12:29N 41°19' E 002°09'0 0.0
2018-Jun-12 11:59N 41°19' E 002°09'0 0.0
2018-Jun-12 11:29N 41°19' E 002°09'0 0.0
2018-Jun-12 10:59N 41°19' E 002°09'0 0.0
2018-Jun-12 10:29N 41°19' E 002°09'0 0.0
2018-Jun-12 09:59N 41°19' E 002°09'0 0.0
2018-Jun-12 09:29N 41°19' E 002°09'0 0.0
2018-Jun-12 08:59N 41°19' E 002°09'0 0.0
2018-Jun-12 08:29N 41°19' E 002°09'0 0.0
2018-Jun-12 07:59N 41°19' E 002°09'0 0.0
2018-Jun-12 07:29N 41°19' E 002°09'0 0.0
2018-Jun-12 06:59N 41°19' E 002°09'0 0.0
2018-Jun-12 06:29N 41°19' E 002°09'0 0.0
2018-Jun-12 05:59N 41°19' E 002°09'0 0.0
2018-Jun-12 05:30N 41°19' E 002°09'2 3.6
2018-Jun-12 05:00N 41°18' E 002°11'2 4.6
2018-Jun-12 04:30N 41°15' E 002°12'0 0.4
2018-Jun-12 04:00N 41°15' E 002°12'1 1.8
2018-Jun-12 03:30N 41°15' E 002°11'510.0
2018-Jun-12 03:01N 41°11' E 002°07'917.0
2018-Jun-12 02:30N 41°03' E 002°02'917.5
2018-Jun-12 02:01N 40°55' E 001°58'1017.6
2018-Jun-12 01:28N 40°47' E 001°51'9318.4
2018-Jun-11 20:24N 39°24' E 000°56'6618.7
2018-Jun-11 16:54N 38°27' E 000°15'718.7
2018-Jun-11 16:30N 38°20' E 000°09'1019.0
2018-Jun-11 16:00N 38°13' E 000°03'918.8
2018-Jun-11 15:30N 38°05' W 000°04'918.7
2018-Jun-11 15:00N 37°57' W 000°10'1018.7
2018-Jun-11 14:29N 37°49' W 000°17'918.7
2018-Jun-11 14:01N 37°41' W 000°23'918.8
2018-Jun-11 13:30N 37°33' W 000°30'919.0
2018-Jun-11 13:00N 37°27' W 000°39'1019.1
2018-Jun-11 12:30N 37°20' W 000°47'918.8
2018-Jun-11 12:01N 37°14' W 000°56'918.8
2018-Jun-11 11:31N 37°08' W 001°05'1018.8
2018-Jun-11 11:00N 37°01' W 001°14'19719.2
2018-Jun-11 00:45N 36°00' W 005°07'622.5
2018-Jun-11 00:31N 35°59' W 005°14'1122.1
2018-Jun-11 00:01N 35°57' W 005°27'20215.4
2018-Jun-10 10:52N 37°33' W 009°09'821.9
2018-Jun-10 10:31N 37°39' W 009°04'1020.8
2018-Jun-10 10:01N 37°47' W 008°56'816.8
2018-Jun-10 09:30N 37°54' W 008°50'2 2.6
2018-Jun-10 08:55N 37°56' W 008°51'0 0.0
2018-Jun-10 08:25N 37°56' W 008°51'0 0.0
2018-Jun-10 07:55N 37°56' W 008°51'0 0.0
2018-Jun-10 07:25N 37°56' W 008°51'0 0.0
2018-Jun-10 06:55N 37°56' W 008°51'0 0.0
2018-Jun-10 06:25N 37°56' W 008°51'0 0.0
2018-Jun-10 05:55N 37°56' W 008°51'0 0.0
2018-Jun-10 05:25N 37°56' W 008°51'0 0.0
2018-Jun-10 04:55N 37°56' W 008°51'0 0.0
2018-Jun-10 04:25N 37°56' W 008°51'0 0.0
2018-Jun-10 03:55N 37°56' W 008°51'0 0.0
2018-Jun-10 03:25N 37°56' W 008°51'0 0.0
2018-Jun-10 02:55N 37°56' W 008°51'0 0.0
2018-Jun-10 02:25N 37°56' W 008°51'0 0.0
2018-Jun-10 01:55N 37°56' W 008°51'0 0.0
2018-Jun-10 01:25N 37°56' W 008°51'0 0.0
2018-Jun-10 00:55N 37°56' W 008°51'0 0.0
2018-Jun-10 00:25N 37°56' W 008°51'0 0.0
2018-Jun-09 23:55N 37°56' W 008°51'0 0.0
2018-Jun-09 23:25N 37°56' W 008°51'0 0.0
2018-Jun-09 22:55N 37°56' W 008°51'0 0.0
2018-Jun-09 22:25N 37°56' W 008°51'0 0.0
2018-Jun-09 21:55N 37°56' W 008°51'0 0.0
2018-Jun-09 21:25N 37°56' W 008°51'0 0.0
2018-Jun-09 20:55N 37°56' W 008°51'0 0.2
2018-Jun-09 20:31N 37°56' W 008°51'1 1.5
2018-Jun-09 20:01N 37°55' W 008°50'1 2.2
2018-Jun-09 19:30N 37°54' W 008°50'3 6.7
2018-Jun-09 19:01N 37°51' W 008°52'510.0
2018-Jun-09 18:31N 37°48' W 008°57'1 1.3
2018-Jun-09 18:00N 37°48' W 008°57'1 1.3
2018-Jun-09 17:31N 37°49' W 008°57'1 1.1
2018-Jun-09 17:00N 37°49' W 008°58'0 0.8
2018-Jun-09 16:30N 37°49' W 008°58'1 1.4
2018-Jun-09 16:00N 37°49' W 008°58'2 1.8
2018-Jun-09 15:00N 37°48' W 008°56'1 1.4
2018-Jun-09 14:31N 37°48' W 008°57'1 1.2
2018-Jun-09 14:01N 37°48' W 008°57'1 1.4
2018-Jun-09 13:31N 37°49' W 008°58'1 1.4
2018-Jun-09 13:00N 37°50' W 008°59'1 1.3
2018-Jun-09 12:30N 37°50' W 008°59'1 2.4
2018-Jun-09 12:01N 37°51' W 008°60'4 8.8
2018-Jun-09 11:31N 37°53' W 009°05'4 8.7
2018-Jun-09 11:01N 37°54' W 009°10'4 8.6
2018-Jun-09 10:30N 37°54' W 009°15'510.8
2018-Jun-09 10:01N 37°55' W 009°22'714.9
2018-Jun-09 09:31N 37°55' W 009°32'714.7
2018-Jun-09 09:01N 37°57' W 009°41'815.1
2018-Jun-09 08:30N 37°59' W 009°50'815.4
2018-Jun-09 08:00N 38°00' W 009°60'  
Track history (hours):
 
Tides and Currents Weather Stations Pressure Air Temp Water Temp Dewpoint Dewpoint Depression Visibility Wind Speed Wind Dir Waves Ship Positions

MSC Brianna

Last reported at 2018-Jun-18 19:30 UTC. Time now 2018-Jun-18 19:34 UTC.
Position N 38°03' W 009°23'.

Length 294 m; draft 11.9 m.

Type: Ship (hazmat cat A). MMSI: 353612000.

Date/timePositionNaut miles runAvg speedWind from/ knotsBaromVisibWave heightAir tempDewpointWater temp
2018-Jun-18 19:30N 38°03' W 009°23'815.1
2018-Jun-18 19:00N 37°59' W 009°14'815.2
2018-Jun-18 18:30N 37°56' W 009°06'714.8
2018-Jun-18 18:00N 37°55' W 008°56'5 9.4
2018-Jun-18 17:30N 37°55' W 008°50'1 1.5
2018-Jun-18 16:59N 37°56' W 008°51'0 0.0
2018-Jun-18 16:29N 37°56' W 008°51'0 0.0
2018-Jun-18 15:59N 37°56' W 008°51'0 0.0
2018-Jun-18 15:29N 37°56' W 008°51'0 0.0
2018-Jun-18 14:59N 37°56' W 008°51'0 0.0
2018-Jun-18 14:29N 37°56' W 008°51'0 0.0
2018-Jun-18 13:59N 37°56' W 008°51'0 0.0
2018-Jun-18 13:29N 37°56' W 008°51'0 0.0
2018-Jun-18 12:59N 37°56' W 008°51'0 0.0
2018-Jun-18 12:29N 37°56' W 008°51'0 0.0
2018-Jun-18 11:59N 37°56' W 008°51'0 0.0
2018-Jun-18 11:23N 37°56' W 008°51'0 0.0
2018-Jun-18 10:59N 37°56' W 008°51'0 0.0
2018-Jun-18 10:29N 37°56' W 008°51'0 0.0
2018-Jun-18 09:56N 37°56' W 008°51'0 0.0
2018-Jun-18 09:29N 37°56' W 008°51'0 0.0
2018-Jun-18 08:59N 37°56' W 008°51'0 0.0
2018-Jun-18 08:28N 37°56' W 008°51'0 0.0
2018-Jun-18 07:58N 37°56' W 008°51'0 0.1
2018-Jun-18 07:28N 37°56' W 008°51'0 0.0
2018-Jun-18 06:55N 37°56' W 008°51'0 0.0
2018-Jun-18 06:19N 37°56' W 008°51'0 0.0
2018-Jun-18 05:55N 37°56' W 008°51'0 0.0
2018-Jun-18 05:28N 37°56' W 008°51'0 0.1
2018-Jun-18 04:58N 37°56' W 008°51'0 0.0
2018-Jun-18 04:28N 37°56' W 008°51'0 0.0
2018-Jun-18 03:58N 37°56' W 008°51'0 0.0
2018-Jun-18 03:28N 37°56' W 008°51'0 0.0
2018-Jun-18 02:58N 37°56' W 008°51'0 0.0
2018-Jun-18 02:28N 37°56' W 008°51'0 0.0
2018-Jun-18 01:58N 37°56' W 008°51'0 0.0
2018-Jun-18 01:28N 37°56' W 008°51'0 0.0
2018-Jun-18 00:58N 37°56' W 008°51'0 0.0
2018-Jun-18 00:28N 37°56' W 008°51'0 0.0
2018-Jun-17 23:58N 37°56' W 008°51'0 0.0
2018-Jun-17 23:28N 37°56' W 008°51'0 0.0
2018-Jun-17 22:58N 37°56' W 008°51'0 0.0
2018-Jun-17 22:28N 37°56' W 008°51'0 0.0
2018-Jun-17 21:55N 37°56' W 008°51'0 0.0
2018-Jun-17 21:28N 37°56' W 008°51'0 0.0
2018-Jun-17 20:58N 37°56' W 008°51'0 0.0
2018-Jun-17 20:28N 37°56' W 008°51'0 0.0
2018-Jun-17 19:58N 37°56' W 008°51'0 0.0
2018-Jun-17 19:25N 37°56' W 008°51'0 0.0
2018-Jun-17 18:58N 37°56' W 008°51'0 0.0
2018-Jun-17 18:31N 37°56' W 008°51'2 3.0
2018-Jun-17 18:00N 37°54' W 008°50'3 5.8
2018-Jun-17 17:31N 37°52' W 008°51'4 8.3
2018-Jun-17 17:00N 37°48' W 008°55'2 3.5
2018-Jun-17 16:30N 37°47' W 008°56'1 1.0
2018-Jun-17 15:59N 37°48' W 008°56'1 1.5
2018-Jun-17 15:30N 37°47' W 008°56'1 1.3
2018-Jun-17 15:00N 37°47' W 008°57'1 2.3
2018-Jun-17 14:31N 37°46' W 008°57'1 3.0
2018-Jun-17 14:01N 37°45' W 008°56'1 1.4
2018-Jun-17 13:30N 37°46' W 008°56'1 1.1
2018-Jun-17 13:01N 37°46' W 008°56'0 0.7
2018-Jun-17 12:30N 37°46' W 008°56'1 1.1
2018-Jun-17 12:01N 37°46' W 008°57'0 0.9
2018-Jun-17 11:31N 37°46' W 008°56'1 1.0
2018-Jun-17 11:01N 37°47' W 008°56'0 0.8
2018-Jun-17 10:30N 37°46' W 008°57'1 1.2
2018-Jun-17 10:01N 37°47' W 008°57'0 0.4
2018-Jun-17 09:29N 37°47' W 008°57'2 4.4
2018-Jun-17 09:00N 37°45' W 008°57'2 4.4
2018-Jun-17 08:31N 37°43' W 008°57'2 4.6
2018-Jun-17 08:01N 37°41' W 008°58'2 4.7
2018-Jun-17 07:30N 37°38' W 008°59'2 4.8
2018-Jun-17 07:01N 37°36' W 008°60'3 5.0
2018-Jun-17 06:30N 37°34' W 009°01'3 5.2
2018-Jun-17 06:01N 37°32' W 009°03'3 5.2
2018-Jun-17 05:29N 37°29' W 009°04'3 5.1
2018-Jun-17 04:57N 37°27' W 009°06'2 4.9
2018-Jun-17 04:31N 37°25' W 009°07'2 4.9
2018-Jun-17 04:00N 37°23' W 009°08'2 4.9
2018-Jun-17 03:31N 37°20' W 009°10'2 4.6
2018-Jun-17 03:01N 37°18' W 009°11'2 4.7
2018-Jun-17 02:30N 37°16' W 009°12'2 4.7
2018-Jun-17 02:01N 37°14' W 009°13'3 4.7
2018-Jun-17 01:27N 37°12' W 009°15'2 4.4
2018-Jun-17 01:01N 37°10' W 009°16'2 4.6
2018-Jun-17 00:31N 37°08' W 009°17'2 4.4
2018-Jun-17 00:00N 37°06' W 009°18'2 4.2
2018-Jun-16 23:30N 37°04' W 009°19'2 4.0
2018-Jun-16 23:01N 37°02' W 009°20'2 3.2
2018-Jun-16 22:31N 37°01' W 009°21'1 2.4
2018-Jun-16 22:01N 36°59' W 009°21'1 2.4
2018-Jun-16 21:31N 36°58' W 009°20'1 2.5
2018-Jun-16 21:00N 36°57' W 009°20'1 2.5
2018-Jun-16 20:30N 36°56' W 009°20'1 2.6
2018-Jun-16 20:00N 36°54' W 009°20'2 3.4
2018-Jun-16 19:30N 36°53' W 009°19'2 4.0
2018-Jun-16 19:01N 36°51' W 009°17'2 4.5
2018-Jun-16 18:31N 36°50' W 009°15'2 4.6
2018-Jun-16 18:00N 36°48' W 009°13'3 5.7
2018-Jun-16 17:31N 36°46' W 009°11'3 6.2
2018-Jun-16 17:01N 36°44' W 009°08'3 6.9
2018-Jun-16 16:31N 36°43' W 009°04'4 7.0
2018-Jun-16 16:01N 36°42' W 008°60'4 6.8
2018-Jun-16 15:29N 36°40' W 008°55'3 6.4
2018-Jun-16 15:01N 36°39' W 008°52'3 6.3
2018-Jun-16 14:31N 36°38' W 008°48'4 6.3
2018-Jun-16 13:49N 36°37' W 008°43'2 6.0
2018-Jun-16 13:30N 36°37' W 008°41'13 6.1
2018-Jun-16 11:26N 36°32' W 008°26'3 6.5
2018-Jun-16 10:59N 36°32' W 008°23'3 6.7
2018-Jun-16 10:31N 36°31' W 008°19'3 6.5
2018-Jun-16 10:00N 36°30' W 008°15'3 6.8
2018-Jun-16 09:31N 36°28' W 008°11'5 9.8
2018-Jun-16 09:00N 36°27' W 008°05'1819.3
2018-Jun-16 08:03N 36°21' W 007°43'117.8
2018-Jun-16 08:00N 36°21' W 007°43'610.6
2018-Jun-16 07:29N 36°19' W 007°36'4 7.4
2018-Jun-16 06:59N 36°18' W 007°32'4 7.5
2018-Jun-16 06:24N 36°16' W 007°27'9 8.5
2018-Jun-16 05:24N 36°13' W 007°17'3 8.7
2018-Jun-16 05:00N 36°12' W 007°13'4 8.1
2018-Jun-16 04:30N 36°11' W 007°08'3 6.6
2018-Jun-16 04:00N 36°10' W 007°04'4 6.8
2018-Jun-16 03:29N 36°09' W 006°60'3 6.9
2018-Jun-16 03:00N 36°08' W 006°56'8 6.9
2018-Jun-16 01:53N 36°05' W 006°47'4 6.9
2018-Jun-16 01:21N 36°04' W 006°43'2 6.8
2018-Jun-16 01:00N 36°03' W 006°40'4 6.8
2018-Jun-16 00:25N 36°02' W 006°35'48 7.3
2018-Jun-15 17:49N 35°58' W 005°36'2 6.1
2018-Jun-15 17:30N 35°58' W 005°34'4 7.0
2018-Jun-15 17:00N 35°59' W 005°29'4 7.3
2018-Jun-15 16:30N 36°00' W 005°25'4 7.1
2018-Jun-15 16:00N 36°01' W 005°21'3 6.8
2018-Jun-15 15:30N 36°01' W 005°17'4 7.3
2018-Jun-15 15:00N 36°02' W 005°12'202 7.4
2018-Jun-14 11:45N 37°06' W 001°14'3 6.7
2018-Jun-14 11:19N 37°08' W 001°11'3 7.0
2018-Jun-14 10:57N 37°10' W 001°09'3 6.8
2018-Jun-14 10:30N 37°12' W 001°06'3 6.8
2018-Jun-14 10:00N 37°14' W 001°03'4 6.9
2018-Jun-14 09:27N 37°16' W 000°59'4 7.1
2018-Jun-14 08:56N 37°19' W 000°56'3 7.2
2018-Jun-14 08:30N 37°21' W 000°53'4 8.7
2018-Jun-14 08:01N 37°24' W 000°49'917.8
2018-Jun-14 07:30N 37°30' W 000°40'713.9
2018-Jun-14 07:00N 37°34' W 000°34'4 7.2
2018-Jun-14 06:30N 37°37' W 000°31'4 7.3
2018-Jun-14 06:00N 37°40' W 000°28'4 7.2
2018-Jun-14 05:30N 37°43' W 000°26'4 7.3
2018-Jun-14 05:00N 37°46' W 000°23'4 7.3
2018-Jun-14 04:30N 37°49' W 000°21'4 7.1
2018-Jun-14 04:00N 37°52' W 000°18'3 6.9
2018-Jun-14 03:30N 37°55' W 000°16'3 6.8
2018-Jun-14 03:00N 37°58' W 000°14'4 7.1
2018-Jun-14 02:30N 38°01' W 000°11'4 7.3
2018-Jun-14 02:00N 38°04' W 000°09'4 7.2
2018-Jun-14 01:28N 38°07' W 000°06'3 7.1
2018-Jun-14 01:00N 38°10' W 000°04'5 7.3
2018-Jun-14 00:22N 38°14' W 000°01'6 7.4
2018-Jun-13 23:32N 38°19' E 000°03'1 7.5
2018-Jun-13 23:21N 38°21' E 000°04'3 7.6
2018-Jun-13 23:00N 38°23' E 000°06'4 7.4
2018-Jun-13 22:29N 38°26' E 000°09'25 7.6
2018-Jun-13 19:12N 38°47' E 000°26'135 7.2
2018-Jun-13 00:30N 40°46' E 001°49'6 7.2
2018-Jun-12 23:35N 40°52' E 001°53'2 7.0
2018-Jun-12 23:16N 40°54' E 001°54'2 7.0
2018-Jun-12 22:56N 40°56' E 001°56'3 6.3
2018-Jun-12 22:30N 40°58' E 001°58'3 6.6
2018-Jun-12 22:00N 41°01' E 001°60'3 7.0
2018-Jun-12 21:30N 41°04' E 002°02'3 6.9
2018-Jun-12 21:00N 41°07' E 002°04'3 6.7
2018-Jun-12 20:30N 41°10' E 002°06'3 6.4
2018-Jun-12 20:00N 41°12' E 002°08'3 6.7
2018-Jun-12 19:30N 41°15' E 002°11'3 6.1
2018-Jun-12 19:00N 41°18' E 002°10'1 1.9
2018-Jun-12 18:30N 41°19' E 002°09'0 0.0
2018-Jun-12 17:59N 41°19' E 002°09'0 0.0
2018-Jun-12 17:29N 41°19' E 002°09'0 0.0
2018-Jun-12 16:59N 41°19' E 002°09'0 0.0
2018-Jun-12 16:29N 41°19' E 002°09'0 0.0
2018-Jun-12 15:59N 41°19' E 002°09'0 0.0
2018-Jun-12 15:29N 41°19' E 002°09'0 0.0
2018-Jun-12 14:59N 41°19' E 002°09'0 0.0
2018-Jun-12 14:29N 41°19' E 002°09'0 0.0
2018-Jun-12 13:59N 41°19' E 002°09'0 0.1
2018-Jun-12 13:29N 41°19' E 002°09'0 0.0
2018-Jun-12 12:59N 41°19' E 002°09'0 0.0
2018-Jun-12 12:29N 41°19' E 002°09'0 0.0
2018-Jun-12 11:59N 41°19' E 002°09'0 0.0
2018-Jun-12 11:29N 41°19' E 002°09'0 0.0
2018-Jun-12 10:59N 41°19' E 002°09'0 0.0
2018-Jun-12 10:29N 41°19' E 002°09'0 0.0
2018-Jun-12 09:59N 41°19' E 002°09'0 0.0
2018-Jun-12 09:29N 41°19' E 002°09'0 0.0
2018-Jun-12 08:59N 41°19' E 002°09'0 0.0
2018-Jun-12 08:29N 41°19' E 002°09'0 0.0
2018-Jun-12 07:59N 41°19' E 002°09'0 0.0
2018-Jun-12 07:29N 41°19' E 002°09'0 0.0
2018-Jun-12 06:59N 41°19' E 002°09'0 0.0
2018-Jun-12 06:29N 41°19' E 002°09'0 0.0
2018-Jun-12 05:59N 41°19' E 002°09'0 0.0
2018-Jun-12 05:30N 41°19' E 002°09'2 3.6
2018-Jun-12 05:00N 41°18' E 002°11'2 4.6
2018-Jun-12 04:30N 41°15' E 002°12'0 0.4
2018-Jun-12 04:00N 41°15' E 002°12'1 1.8
2018-Jun-12 03:30N 41°15' E 002°11'510.0
2018-Jun-12 03:01N 41°11' E 002°07'917.0
2018-Jun-12 02:30N 41°03' E 002°02'917.5
2018-Jun-12 02:01N 40°55' E 001°58'1017.6
2018-Jun-12 01:28N 40°47' E 001°51'9318.4
2018-Jun-11 20:24N 39°24' E 000°56'6618.7
2018-Jun-11 16:54N 38°27' E 000°15'718.7
2018-Jun-11 16:30N 38°20' E 000°09'1019.0
2018-Jun-11 16:00N 38°13' E 000°03'918.8
2018-Jun-11 15:30N 38°05' W 000°04'918.7
2018-Jun-11 15:00N 37°57' W 000°10'1018.7
2018-Jun-11 14:29N 37°49' W 000°17'918.7
2018-Jun-11 14:01N 37°41' W 000°23'918.8
2018-Jun-11 13:30N 37°33' W 000°30'919.0
2018-Jun-11 13:00N 37°27' W 000°39'1019.1
2018-Jun-11 12:30N 37°20' W 000°47'918.8
2018-Jun-11 12:01N 37°14' W 000°56'918.8
2018-Jun-11 11:31N 37°08' W 001°05'1018.8
2018-Jun-11 11:00N 37°01' W 001°14'19719.2
2018-Jun-11 00:45N 36°00' W 005°07'622.5
2018-Jun-11 00:31N 35°59' W 005°14'1122.1
2018-Jun-11 00:01N 35°57' W 005°27'20215.4
2018-Jun-10 10:52N 37°33' W 009°09'821.9
2018-Jun-10 10:31N 37°39' W 009°04'1020.8
2018-Jun-10 10:01N 37°47' W 008°56'816.8
2018-Jun-10 09:30N 37°54' W 008°50'2 2.6
2018-Jun-10 08:55N 37°56' W 008°51'0 0.0
2018-Jun-10 08:25N 37°56' W 008°51'0 0.0
2018-Jun-10 07:55N 37°56' W 008°51'0 0.0
2018-Jun-10 07:25N 37°56' W 008°51'0 0.0
2018-Jun-10 06:55N 37°56' W 008°51'0 0.0
2018-Jun-10 06:25N 37°56' W 008°51'0 0.0
2018-Jun-10 05:55N 37°56' W 008°51'0 0.0
2018-Jun-10 05:25N 37°56' W 008°51'0 0.0
2018-Jun-10 04:55N 37°56' W 008°51'0 0.0
2018-Jun-10 04:25N 37°56' W 008°51'0 0.0
2018-Jun-10 03:55N 37°56' W 008°51'0 0.0
2018-Jun-10 03:25N 37°56' W 008°51'0 0.0
2018-Jun-10 02:55N 37°56' W 008°51'0 0.0
2018-Jun-10 02:25N 37°56' W 008°51'0 0.0
2018-Jun-10 01:55N 37°56' W 008°51'0 0.0
2018-Jun-10 01:25N 37°56' W 008°51'0 0.0
2018-Jun-10 00:55N 37°56' W 008°51'0 0.0
2018-Jun-10 00:25N 37°56' W 008°51'0 0.0
2018-Jun-09 23:55N 37°56' W 008°51'0 0.0
2018-Jun-09 23:25N 37°56' W 008°51'0 0.0
2018-Jun-09 22:55N 37°56' W 008°51'0 0.0
2018-Jun-09 22:25N 37°56' W 008°51'0 0.0
2018-Jun-09 21:55N 37°56' W 008°51'0 0.0
2018-Jun-09 21:25N 37°56' W 008°51'0 0.0
2018-Jun-09 20:55N 37°56' W 008°51'0 0.2
2018-Jun-09 20:31N 37°56' W 008°51'1 1.5
2018-Jun-09 20:01N 37°55' W 008°50'1 2.2
2018-Jun-09 19:30N 37°54' W 008°50'3 6.7
2018-Jun-09 19:01N 37°51' W 008°52'510.0
2018-Jun-09 18:31N 37°48' W 008°57'1 1.3
2018-Jun-09 18:00N 37°48' W 008°57'1 1.3
2018-Jun-09 17:31N 37°49' W 008°57'1 1.1
2018-Jun-09 17:00N 37°49' W 008°58'0 0.8
2018-Jun-09 16:30N 37°49' W 008°58'1 1.4
2018-Jun-09 16:00N 37°49' W 008°58'2 1.8
2018-Jun-09 15:00N 37°48' W 008°56'1 1.4
2018-Jun-09 14:31N 37°48' W 008°57'1 1.2
2018-Jun-09 14:01N 37°48' W 008°57'1 1.4
2018-Jun-09 13:31N 37°49' W 008°58'1 1.4
2018-Jun-09 13:00N 37°50' W 008°59'1 1.3
2018-Jun-09 12:30N 37°50' W 008°59'1 2.4
2018-Jun-09 12:01N 37°51' W 008°60'4 8.8
2018-Jun-09 11:31N 37°53' W 009°05'4 8.7
2018-Jun-09 11:01N 37°54' W 009°10'4 8.6
2018-Jun-09 10:30N 37°54' W 009°15'510.8
2018-Jun-09 10:01N 37°55' W 009°22'714.9
2018-Jun-09 09:31N 37°55' W 009°32'714.7
2018-Jun-09 09:01N 37°57' W 009°41'815.1
2018-Jun-09 08:30N 37°59' W 009°50'815.4
2018-Jun-09 08:00N 38°00' W 009°60'  

Dump ship's entire track history